createdAt,value
2019-04-23T00:00:11.743Z,41.80
2019-04-23T00:02:20.600Z,41.80
2019-04-23T00:04:48.141Z,42.00
2019-04-23T00:09:56.884Z,42.30
2019-04-23T00:12:29.971Z,42.70
2019-04-23T00:15:05.159Z,42.60
2019-04-23T00:17:38.897Z,42.50
2019-04-23T00:20:06.183Z,42.30
2019-04-23T00:22:36.678Z,42.30
2019-04-23T00:25:34.467Z,42.40
2019-04-23T00:27:51.588Z,42.40
2019-04-23T00:30:23.924Z,42.60
2019-04-23T00:33:29.695Z,42.60
2019-04-23T00:35:56.512Z,42.70
2019-04-23T00:38:38.590Z,43.30
2019-04-23T00:41:05.685Z,42.80
2019-04-23T00:43:43.290Z,42.90
2019-04-23T00:46:13.406Z,43.10
2019-04-23T00:48:45.410Z,43.30
2019-04-23T00:51:20.610Z,43.50
2019-04-23T00:53:43.637Z,43.60
2019-04-23T00:56:32.336Z,43.80
2019-04-23T00:58:49.499Z,43.90
2019-04-23T01:01:18.311Z,44.00
2019-04-23T01:03:55.114Z,44.20
2019-04-23T01:06:25.570Z,44.40
2019-04-23T01:08:55.179Z,44.60
2019-04-23T01:11:27.640Z,45.00
2019-04-23T01:13:52.988Z,45.00
2019-04-23T01:16:31.519Z,45.20
2019-04-23T01:19:12.185Z,45.40
2019-04-23T01:21:24.457Z,45.00
2019-04-23T01:24:08.301Z,45.60
2019-04-23T01:27:32.511Z,46.00
2019-04-23T01:29:56.149Z,46.20
2019-04-23T01:32:32.128Z,46.10
2019-04-23T01:37:36.765Z,46.80
2019-04-23T01:40:04.230Z,47.00
2019-04-23T01:47:49.731Z,47.60
2019-04-23T01:52:53.949Z,48.00
2019-04-23T01:58:06.979Z,48.40
2019-04-23T02:00:30.362Z,48.70
2019-04-23T02:06:44.828Z,49.10
2019-04-23T02:09:17.101Z,48.90
2019-04-23T02:12:07.116Z,49.20
2019-04-23T02:14:26.754Z,49.40
2019-04-23T02:16:50.255Z,49.70
2019-04-23T02:19:23.852Z,49.80
2019-04-23T02:22:03.968Z,49.90
2019-04-23T02:27:12.208Z,50.20
2019-04-23T02:29:56.896Z,50.40
2019-04-23T02:32:08.895Z,50.60
2019-04-23T02:35:09.996Z,51.10
2019-04-23T02:37:40.872Z,51.00
2019-04-23T02:40:01.943Z,51.40
2019-04-23T02:42:43.321Z,51.60
2019-04-23T02:44:56.123Z,51.80
2019-04-23T02:47:35.008Z,51.90
2019-04-23T02:50:32.919Z,52.00
2019-04-23T02:52:28.990Z,52.10
2019-04-23T02:57:36.415Z,52.50
2019-04-23T03:00:18.919Z,52.90
2019-04-23T03:02:58.786Z,52.70
2019-04-23T03:05:20.071Z,53.00
2019-04-23T03:07:47.491Z,53.00
2019-04-23T03:23:46.687Z,54.00
2019-04-23T03:26:31.620Z,54.10
2019-04-23T03:29:04.339Z,54.20
2019-04-23T03:33:08.570Z,54.20
2019-04-23T03:34:19.602Z,54.30
2019-04-23T03:38:48.375Z,54.60
2019-04-23T03:41:27.792Z,54.60
2019-04-23T03:46:30.370Z,54.80
2019-04-23T03:48:54.970Z,54.90
2019-04-23T03:56:44.817Z,55.30
2019-04-23T03:59:31.655Z,55.40
2019-04-23T04:01:34.731Z,55.20
2019-04-23T04:07:01.277Z,55.20
2019-04-23T04:09:26.055Z,55.20
2019-04-23T04:11:27.473Z,55.20
2019-04-23T04:19:34.008Z,55.50
2019-04-23T04:24:27.493Z,55.70
2019-04-23T04:27:01.750Z,55.90
2019-04-23T04:29:47.103Z,56.00
2019-04-23T04:39:33.989Z,56.20
2019-04-23T04:42:06.152Z,56.30
2019-04-23T04:47:27.874Z,56.70
2019-04-23T04:54:24.562Z,56.80
2019-04-23T04:57:21.858Z,56.90
2019-04-23T04:59:54.036Z,57.00
2019-04-23T05:04:59.873Z,57.00
2019-04-23T05:07:27.668Z,57.10
2019-04-23T05:09:55.159Z,57.20
2019-04-23T05:12:23.795Z,57.20
2019-04-23T05:14:56.855Z,57.20
2019-04-23T05:17:54.619Z,57.50
2019-04-23T05:20:16.723Z,57.60
2019-04-23T05:22:49.353Z,57.60
2019-04-23T05:25:15.531Z,57.70
2019-04-23T05:27:53.629Z,57.70
2019-04-23T05:30:24.814Z,57.70
2019-04-23T05:32:49.112Z,57.70
2019-04-23T05:35:33.298Z,57.90
2019-04-23T05:41:03.745Z,57.80
2019-04-23T05:42:53.284Z,57.60
2019-04-23T05:45:33.299Z,57.80
2019-04-23T05:48:06.757Z,57.70
2019-04-23T05:50:50.613Z,57.60
2019-04-23T05:55:43.028Z,58.00
2019-04-23T05:58:18.511Z,58.00
2019-04-23T06:03:22.891Z,57.90
2019-04-23T06:05:59.770Z,58.00
2019-04-23T06:08:35.147Z,57.80
2019-04-23T06:11:02.555Z,57.90
2019-04-23T06:13:35.609Z,58.10
2019-04-23T06:15:59.353Z,58.20
2019-04-23T06:18:38.961Z,58.10
2019-04-23T06:23:50.145Z,58.20
2019-04-23T06:26:19.815Z,58.30
2019-04-23T06:28:46.223Z,58.40
2019-04-23T06:31:20.449Z,58.20
2019-04-23T06:33:43.379Z,58.10
2019-04-23T06:36:18.998Z,58.50
2019-04-23T06:38:53.388Z,58.60
2019-04-23T06:43:59.904Z,58.30
2019-04-23T06:46:20.036Z,58.30
2019-04-23T06:48:58.999Z,58.40
2019-04-23T06:51:29.239Z,58.50
2019-04-23T06:53:59.943Z,58.50
2019-04-23T06:56:33.546Z,58.60
2019-04-23T06:59:02.587Z,58.30
2019-04-23T07:01:35.853Z,58.30
2019-04-23T07:04:05.595Z,58.10
2019-04-23T07:09:13.436Z,58.10
2019-04-23T07:11:51.282Z,58.00
2019-04-23T07:14:02.580Z,58.00
2019-04-23T07:16:58.402Z,57.80
2019-04-23T07:19:31.821Z,57.60
2019-04-23T07:24:45.838Z,57.30
2019-04-23T07:27:13.444Z,56.90
2019-04-23T07:29:55.550Z,56.90
2019-04-23T07:32:20.870Z,56.90
2019-04-23T07:34:59.270Z,56.70
2019-04-23T07:37:22.258Z,56.70
2019-04-23T07:40:09.886Z,56.70
2019-04-23T07:42:37.285Z,56.50
2019-04-23T07:45:10.506Z,56.10
2019-04-23T07:48:01.834Z,56.20
2019-04-23T07:58:19.547Z,56.30
2019-04-23T08:03:29.029Z,56.30
2019-04-23T08:06:02.670Z,56.30
2019-04-23T08:14:13.581Z,56.00
2019-04-23T08:21:39.788Z,55.80
2019-04-23T08:24:38.100Z,54.90
2019-04-23T08:27:07.554Z,54.80
2019-04-23T08:29:47.705Z,55.30
2019-04-23T08:32:12.032Z,55.40
2019-04-23T08:34:58.430Z,55.00
2019-04-23T08:39:43.181Z,54.50
2019-04-23T08:45:07.582Z,54.40
2019-04-23T08:48:03.645Z,54.60
2019-04-23T08:50:14.963Z,54.50
2019-04-23T08:52:48.259Z,54.50
2019-04-23T08:55:16.906Z,53.90
2019-04-23T08:57:43.255Z,53.60
2019-04-23T09:00:23.458Z,53.30
2019-04-23T09:02:54.080Z,52.30
2019-04-23T09:05:28.663Z,52.30
2019-04-23T09:07:59.794Z,52.70
2019-04-23T09:13:40.170Z,52.60
2019-04-23T09:15:55.889Z,51.00
2019-04-23T09:20:55.271Z,51.40
2019-04-23T09:23:46.723Z,50.90
2019-04-23T09:25:57.707Z,50.50
2019-04-23T09:28:42.955Z,49.80
2019-04-23T09:36:23.850Z,47.90
2019-04-23T09:38:55.812Z,47.90
2019-04-23T09:41:31.143Z,48.40
2019-04-23T09:44:47.266Z,47.40
2019-04-23T09:47:06.579Z,47.80
2019-04-23T09:49:42.535Z,47.50
2019-04-23T09:54:47.673Z,46.60
2019-04-23T09:57:10.869Z,46.70
2019-04-23T09:59:45.720Z,46.60
2019-04-23T10:02:05.530Z,46.90
2019-04-23T10:04:39.802Z,46.40
2019-04-23T10:07:07.275Z,47.10
2019-04-23T10:09:27.687Z,46.70
2019-04-23T10:11:58.745Z,46.90
2019-04-23T10:14:30.321Z,47.00
2019-04-23T10:17:02.062Z,47.30
2019-04-23T10:19:32.876Z,46.30
2019-04-23T10:22:05.059Z,46.20
2019-04-23T10:24:37.015Z,46.10
2019-04-23T10:27:08.380Z,47.00
2019-04-23T10:29:41.811Z,46.70
2019-04-23T10:32:15.803Z,46.90
2019-04-23T10:34:57.848Z,47.10
2019-04-23T10:37:31.634Z,47.00
2019-04-23T10:39:58.188Z,47.00
2019-04-23T10:42:30.699Z,47.40
2019-04-23T10:45:26.928Z,47.10
2019-04-23T10:50:57.166Z,47.10
2019-04-23T10:56:18.456Z,47.20
2019-04-23T11:01:21.344Z,46.80
2019-04-23T11:04:11.891Z,47.30
2019-04-23T11:06:39.661Z,46.50
2019-04-23T11:09:15.691Z,46.10
2019-04-23T11:11:40.750Z,46.10
2019-04-23T11:14:18.978Z,45.20
2019-04-23T11:19:23.751Z,45.60
2019-04-23T11:22:04.330Z,45.30
2019-04-23T11:24:36.145Z,45.40
2019-04-23T11:27:10.256Z,45.80
2019-04-23T11:35:05.055Z,45.40
2019-04-23T11:38:01.636Z,45.60
2019-04-23T11:40:08.698Z,43.50
2019-04-23T11:42:42.594Z,44.30
2019-04-23T11:45:30.589Z,43.90
2019-04-23T11:48:23.940Z,44.00
2019-04-23T11:50:38.036Z,44.80
2019-04-23T11:58:07.690Z,44.60
2019-04-23T12:00:45.620Z,44.80
2019-04-23T12:03:17.513Z,44.80
2019-04-23T12:06:15.434Z,44.90
2019-04-23T12:08:50.938Z,44.80
2019-04-23T12:11:50.261Z,44.90
2019-04-23T12:14:03.636Z,44.90
2019-04-23T12:16:38.413Z,44.90
2019-04-23T12:19:33.287Z,44.40
2019-04-23T12:21:45.398Z,43.40
2019-04-23T12:24:15.672Z,43.50
2019-04-23T12:26:46.450Z,43.90
2019-04-23T12:29:21.896Z,43.50
2019-04-23T12:32:14.537Z,43.80
2019-04-23T12:34:47.527Z,43.40
2019-04-23T12:37:32.763Z,43.40
2019-04-23T12:42:48.909Z,42.80
2019-04-23T12:53:10.189Z,41.40
2019-04-23T13:03:29.923Z,40.90
2019-04-23T13:05:57.535Z,41.50
2019-04-23T13:11:30.165Z,41.10
2019-04-23T13:13:56.385Z,41.90
2019-04-23T13:19:39.907Z,41.50
2019-04-23T13:25:05.375Z,41.40
2019-04-23T13:33:26.729Z,42.00
2019-04-23T13:35:55.230Z,42.40
2019-04-23T13:40:57.191Z,42.80
2019-04-23T13:43:30.366Z,42.20
2019-04-23T13:56:01.965Z,42.10
2019-04-23T13:58:50.462Z,42.00
2019-04-23T14:09:15.091Z,43.20
2019-04-23T14:16:35.850Z,44.00
2019-04-23T14:19:02.341Z,43.90
2019-04-23T14:22:21.237Z,44.50
2019-04-23T14:24:26.856Z,43.80
2019-04-23T14:26:48.893Z,43.80
2019-04-23T14:29:31.883Z,43.90
2019-04-23T14:32:05.145Z,44.60
2019-04-23T14:34:24.966Z,44.10
2019-04-23T14:39:34.086Z,45.00
2019-04-23T14:42:24.726Z,45.20
2019-04-23T14:44:41.543Z,45.10
2019-04-23T14:47:23.949Z,44.60
2019-04-23T14:55:56.942Z,45.50
2019-04-23T15:01:07.482Z,45.20
2019-04-23T15:03:35.400Z,45.30
2019-04-23T15:06:12.361Z,44.90
2019-04-23T15:08:40.644Z,44.50
2019-04-23T15:11:21.406Z,44.60
2019-04-23T15:16:17.382Z,44.90
2019-04-23T15:18:55.119Z,45.30
2019-04-23T15:21:39.698Z,44.60
2019-04-23T15:27:21.894Z,44.60
2019-04-23T15:28:37.517Z,45.00
2019-04-23T15:31:44.408Z,44.50
2019-04-23T15:34:14.197Z,44.70
2019-04-23T15:36:59.764Z,44.80
2019-04-23T15:41:55.869Z,44.60
2019-04-23T15:44:13.689Z,44.60
2019-04-23T15:46:47.209Z,44.60
2019-04-23T15:49:22.848Z,44.90
2019-04-23T15:54:32.076Z,45.30
2019-04-23T15:56:55.048Z,45.40
2019-04-23T16:01:41.236Z,45.70
2019-04-23T16:04:03.373Z,45.50
2019-04-23T16:06:36.857Z,45.60
2019-04-23T16:09:28.436Z,45.80
2019-04-23T16:11:58.961Z,45.20
2019-04-23T16:17:18.745Z,45.10
2019-04-23T16:23:00.951Z,45.40
2019-04-23T16:25:17.833Z,45.60
2019-04-23T16:27:56.397Z,45.70
2019-04-23T16:30:32.557Z,46.00
2019-04-23T16:35:51.696Z,45.80
2019-04-23T16:38:23.239Z,46.40
2019-04-23T16:40:41.463Z,46.00
2019-04-23T16:45:55.535Z,46.10
2019-04-23T16:51:13.676Z,45.70
2019-04-23T16:53:27.532Z,45.90
2019-04-23T16:56:05.186Z,45.90
2019-04-23T16:58:33.612Z,46.00
2019-04-23T17:03:38.343Z,46.40
2019-04-23T17:06:12.159Z,46.70
2019-04-23T17:11:15.723Z,47.00
2019-04-23T17:13:52.099Z,47.10
2019-04-23T17:16:23.434Z,46.90
2019-04-23T17:18:55.250Z,47.10
2019-04-23T17:21:23.306Z,47.70
2019-04-23T17:24:08.999Z,47.30
2019-04-23T17:26:29.117Z,47.60
2019-04-23T17:29:08.431Z,47.90
2019-04-23T17:34:18.702Z,48.90
2019-04-23T17:36:45.841Z,48.20
2019-04-23T17:39:48.466Z,48.40
2019-04-23T17:42:22.481Z,48.60
2019-04-23T17:45:03.171Z,48.80
2019-04-23T17:47:28.559Z,49.00
2019-04-23T17:50:56.934Z,49.20
2019-04-23T17:52:35.112Z,49.20
2019-04-23T17:55:09.310Z,49.20
2019-04-23T18:02:55.963Z,49.50
2019-04-23T18:05:36.303Z,49.60
2019-04-23T18:08:11.789Z,49.70
2019-04-23T18:10:37.102Z,49.70
2019-04-23T18:13:06.020Z,49.50
2019-04-23T18:15:41.931Z,49.40
2019-04-23T18:18:16.551Z,49.40
2019-04-23T18:20:58.025Z,49.40
2019-04-23T18:23:26.189Z,49.30
2019-04-23T18:25:58.038Z,49.40
2019-04-23T18:28:29.610Z,49.40
2019-04-23T18:31:29.383Z,49.60
2019-04-23T18:34:12.616Z,49.30
2019-04-23T18:36:18.331Z,49.50
2019-04-23T18:41:43.045Z,50.30
2019-04-23T18:44:30.507Z,50.70
2019-04-23T18:52:39.438Z,52.60
2019-04-23T18:54:56.969Z,53.20
2019-04-23T18:57:27.398Z,53.30
2019-04-23T19:00:09.074Z,53.60
2019-04-23T19:02:52.349Z,54.10
2019-04-23T19:13:07.045Z,54.90
2019-04-23T19:23:50.997Z,56.00
2019-04-23T19:25:44.153Z,56.20
2019-04-23T19:28:38.358Z,56.60
2019-04-23T19:31:10.296Z,56.70
2019-04-23T19:33:45.485Z,57.10
2019-04-23T19:38:43.520Z,57.60
2019-04-23T19:41:19.066Z,58.00
2019-04-23T19:46:36.946Z,58.30
2019-04-23T19:48:57.904Z,58.50
2019-04-23T19:51:26.930Z,58.70
2019-04-23T19:54:16.722Z,59.10
2019-04-23T19:59:02.045Z,59.60
2019-04-23T20:01:33.412Z,59.80
2019-04-23T20:03:56.066Z,60.20
2019-04-23T20:07:00.144Z,60.50
2019-04-23T20:09:30.631Z,60.80
2019-04-23T20:11:50.677Z,61.10
2019-04-23T20:14:11.622Z,61.40
2019-04-23T20:17:21.451Z,61.40
2019-04-23T20:19:20.954Z,61.70
2019-04-23T20:22:00.256Z,62.20
2019-04-23T20:24:28.543Z,62.40
2019-04-23T20:26:59.269Z,62.50
2019-04-23T20:32:05.522Z,63.10
2019-04-23T20:34:53.098Z,63.50
2019-04-23T20:37:48.748Z,63.60
2019-04-23T20:39:56.683Z,64.20
2019-04-23T20:45:07.848Z,64.00
2019-04-23T20:47:37.179Z,64.00
2019-04-23T20:49:58.243Z,64.70
2019-04-23T20:52:46.599Z,64.50
2019-04-23T20:55:21.278Z,65.20
2019-04-23T21:00:30.336Z,65.60
2019-04-23T21:03:28.874Z,65.70
2019-04-23T21:05:33.176Z,66.20
2019-04-23T21:08:06.093Z,66.60
2019-04-23T21:10:46.867Z,66.60
2019-04-23T21:13:27.517Z,66.90
2019-04-23T21:15:45.284Z,67.10
2019-04-23T21:20:56.743Z,67.30
2019-04-23T21:23:24.338Z,67.80
2019-04-23T21:25:56.123Z,68.20
2019-04-23T21:28:37.180Z,68.30
2019-04-23T21:31:06.079Z,68.40
2019-04-23T21:33:59.613Z,68.40
2019-04-23T21:39:15.433Z,68.40
2019-04-23T21:44:35.908Z,68.50
2019-04-23T21:46:58.177Z,68.90
2019-04-23T21:52:11.175Z,69.00
2019-04-23T21:57:37.080Z,69.40
2019-04-23T22:03:29.637Z,69.60
2019-04-23T22:15:06.891Z,69.90
2019-04-23T22:17:44.855Z,69.50
2019-04-23T22:20:34.164Z,69.10
2019-04-23T22:23:10.696Z,68.70
2019-04-23T22:28:51.001Z,68.20
2019-04-23T22:31:18.652Z,68.20
2019-04-23T22:34:02.293Z,68.20
2019-04-23T22:36:29.202Z,68.40
2019-04-23T22:39:07.813Z,68.10
2019-04-23T22:44:24.599Z,68.10
2019-04-23T22:46:52.133Z,68.20
2019-04-23T22:49:30.859Z,68.20
2019-04-23T22:51:59.184Z,68.30
2019-04-23T22:56:54.329Z,68.60
2019-04-23T22:59:27.985Z,68.60
2019-04-23T23:01:59.111Z,68.60
2019-04-23T23:04:33.519Z,68.50
2019-04-23T23:07:01.198Z,68.50
2019-04-23T23:12:04.384Z,68.70
2019-04-23T23:14:35.282Z,68.60
2019-04-23T23:17:16.326Z,68.70
2019-04-23T23:20:03.487Z,68.90
2019-04-23T23:25:23.860Z,69.10
2019-04-23T23:33:04.115Z,69.30
2019-04-23T23:35:34.663Z,69.50
2019-04-23T23:38:24.057Z,69.70
2019-04-23T23:41:05.418Z,70.00
2019-04-23T23:43:25.876Z,69.80
2019-04-23T23:48:48.457Z,70.10
2019-04-23T23:51:27.336Z,70.00
2019-04-23T23:56:52.322Z,70.50
2019-04-23T23:59:26.969Z,70.20
